sensor_id;sensor_type;location;lat;lon;timestamp;pressure;altitude;pressure_sealevel;temperature;humidity
69855;BME280;57146;48.140;16.304;2024-03-23T00:52:55;98819.94;;;10.20;73.78
69855;BME280;57146;48.140;16.304;2024-03-23T00:55:21;98818.41;;;10.19;74.33
69855;BME280;57146;48.140;16.304;2024-03-23T00:57:47;98819.78;;;10.17;74.10
69855;BME280;57146;48.140;16.304;2024-03-23T01:00:14;98817.91;;;10.17;73.85
69855;BME280;57146;48.140;16.304;2024-03-23T01:02:39;98814.22;;;10.18;73.94
69855;BME280;57146;48.140;16.304;2024-03-23T01:05:06;98807.09;;;10.19;74.58
69855;BME280;57146;48.140;16.304;2024-03-23T01:07:31;98812.19;;;10.15;74.30
69855;BME280;57146;48.140;16.304;2024-03-23T01:09:57;98816.09;;;10.18;73.81
69855;BME280;57146;48.140;16.304;2024-03-23T01:12:23;98811.28;;;10.20;74.01
69855;BME280;57146;48.140;16.304;2024-03-23T01:14:49;98811.13;;;10.16;74.22
69855;BME280;57146;48.140;16.304;2024-03-23T01:17:14;98814.34;;;10.13;74.16
69855;BME280;57146;48.140;16.304;2024-03-23T01:19:40;98812.50;;;10.14;74.06
69855;BME280;57146;48.140;16.304;2024-03-23T01:22:06;98813.59;;;10.13;74.78
69855;BME280;57146;48.140;16.304;2024-03-23T01:24:32;98809.88;;;10.14;74.64
69855;BME280;57146;48.140;16.304;2024-03-23T01:26:58;98808.16;;;10.09;74.80
69855;BME280;57146;48.140;16.304;2024-03-23T01:29:24;98805.69;;;10.04;75.00
69855;BME280;57146;48.140;16.304;2024-03-23T01:31:49;98804.28;;;10.06;75.15
69855;BME280;57146;48.140;16.304;2024-03-23T01:34:15;98803.06;;;10.04;75.45
69855;BME280;57146;48.140;16.304;2024-03-23T01:36:41;98807.22;;;10.05;75.36
69855;BME280;57146;48.140;16.304;2024-03-23T01:39:07;98795.16;;;10.04;75.52
69855;BME280;57146;48.140;16.304;2024-03-23T01:41:33;98795.47;;;10.02;75.46
69855;BME280;57146;48.140;16.304;2024-03-23T01:44:04;98794.84;;;10.05;75.28
69855;BME280;57146;48.140;16.304;2024-03-23T01:46:31;98797.19;;;10.07;74.88
69855;BME280;57146;48.140;16.304;2024-03-23T01:48:57;98788.97;;;10.08;75.39
69855;BME280;57146;48.140;16.304;2024-03-23T01:51:23;98785.59;;;10.08;76.01
69855;BME280;57146;48.140;16.304;2024-03-23T01:53:49;98789.44;;;10.02;76.07
69855;BME280;57146;48.140;16.304;2024-03-23T01:56:15;98790.97;;;10.03;76.20
69855;BME280;57146;48.140;16.304;2024-03-23T01:58:41;98790.22;;;10.02;76.38
69855;BME280;57146;48.140;16.304;2024-03-23T02:01:07;98782.31;;;10.02;76.30
69855;BME280;57146;48.140;16.304;2024-03-23T02:03:33;98786.34;;;10.00;75.94
69855;BME280;57146;48.140;16.304;2024-03-23T02:05:59;98783.09;;;9.94;75.76
69855;BME280;57146;48.140;16.304;2024-03-23T02:08:24;98772.09;;;9.92;74.99
69855;BME280;57146;48.140;16.304;2024-03-23T02:10:51;98772.25;;;9.96;75.43
69855;BME280;57146;48.140;16.304;2024-03-23T02:13:18;98769.94;;;9.94;75.52
69855;BME280;57146;48.140;16.304;2024-03-23T02:15:44;98768.69;;;9.92;76.30
69855;BME280;57146;48.140;16.304;2024-03-23T02:18:10;98761.13;;;9.90;76.50
69855;BME280;57146;48.140;16.304;2024-03-23T02:20:37;98764.03;;;9.89;76.72
69855;BME280;57146;48.140;16.304;2024-03-23T02:23:04;98749.69;;;9.86;76.49
69855;BME280;57146;48.140;16.304;2024-03-23T02:25:30;98748.59;;;9.87;76.17
69855;BME280;57146;48.140;16.304;2024-03-23T02:27:56;98746.72;;;9.88;75.90
69855;BME280;57146;48.140;16.304;2024-03-23T02:30:22;98741.03;;;9.86;75.81
69855;BME280;57146;48.140;16.304;2024-03-23T02:32:48;98724.44;;;9.85;75.72
69855;BME280;57146;48.140;16.304;2024-03-23T02:35:13;98732.34;;;9.85;75.64
69855;BME280;57146;48.140;16.304;2024-03-23T02:37:39;98725.69;;;9.88;75.91
69855;BME280;57146;48.140;16.304;2024-03-23T02:40:05;98722.44;;;9.91;75.90
69855;BME280;57146;48.140;16.304;2024-03-23T02:42:31;98724.59;;;9.89;76.60
69855;BME280;57146;48.140;16.304;2024-03-23T02:44:58;98710.25;;;9.86;76.72
69855;BME280;57146;48.140;16.304;2024-03-23T02:47:24;98710.84;;;9.83;75.91
69855;BME280;57146;48.140;16.304;2024-03-23T02:49:50;98699.25;;;9.84;76.02
69855;BME280;57146;48.140;16.304;2024-03-23T02:52:16;98701.09;;;9.83;76.03
69855;BME280;57146;48.140;16.304;2024-03-23T02:54:41;98701.09;;;9.83;76.39
69855;BME280;57146;48.140;16.304;2024-03-23T02:57:07;98696.94;;;9.82;76.04
69855;BME280;57146;48.140;16.304;2024-03-23T02:59:33;98692.75;;;9.81;76.17
69855;BME280;57146;48.140;16.304;2024-03-23T03:01:59;98694.91;;;9.79;75.85
69855;BME280;57146;48.140;16.304;2024-03-23T03:04:24;98691.22;;;9.80;75.86
69855;BME280;57146;48.140;16.304;2024-03-23T03:06:50;98692.28;;;9.79;76.18
69855;BME280;57146;48.140;16.304;2024-03-23T03:09:16;98698.94;;;9.77;76.43
69855;BME280;57146;48.140;16.304;2024-03-23T03:11:42;98691.66;;;9.74;76.38
69855;BME280;57146;48.140;16.304;2024-03-23T03:14:08;98683.63;;;9.70;76.54
69855;BME280;57146;48.140;16.304;2024-03-23T03:16:33;98694.75;;;9.67;76.19
69855;BME280;57146;48.140;16.304;2024-03-23T03:18:59;98685.16;;;9.63;76.49
69855;BME280;57146;48.140;16.304;2024-03-23T03:21:25;98682.84;;;9.61;76.95
69855;BME280;57146;48.140;16.304;2024-03-23T03:23:51;98687.94;;;9.57;76.54
69855;BME280;57146;48.140;16.304;2024-03-23T03:26:17;98682.53;;;9.54;77.11
69855;BME280;57146;48.140;16.304;2024-03-23T03:28:43;98683.91;;;9.51;76.72
69855;BME280;57146;48.140;16.304;2024-03-23T03:31:08;98689.47;;;9.50;76.72
69855;BME280;57146;48.140;16.304;2024-03-23T03:33:34;98677.72;;;9.47;76.34
69855;BME280;57146;48.140;16.304;2024-03-23T03:36:00;98682.66;;;9.49;76.55
69855;BME280;57146;48.140;16.304;2024-03-23T03:38:26;98688.38;;;9.51;76.29
69855;BME280;57146;48.140;16.304;2024-03-23T03:40:52;98682.03;;;9.52;76.67
69855;BME280;57146;48.140;16.304;2024-03-23T03:43:17;98680.78;;;9.49;76.93
69855;BME280;57146;48.140;16.304;2024-03-23T03:45:51;98677.41;;;9.49;76.74
69855;BME280;57146;48.140;16.304;2024-03-23T03:48:17;98683.13;;;9.51;76.36
69855;BME280;57146;48.140;16.304;2024-03-23T03:50:43;98684.06;;;9.55;75.36
69855;BME280;57146;48.140;16.304;2024-03-23T03:53:09;98671.25;;;9.53;76.28
69855;BME280;57146;48.140;16.304;2024-03-23T03:55:34;98664.41;;;9.52;76.60
69855;BME280;57146;48.140;16.304;2024-03-23T03:58:00;98662.13;;;9.51;76.54
69855;BME280;57146;48.140;16.304;2024-03-23T04:00:26;98671.25;;;9.53;76.64
69855;BME280;57146;48.140;16.304;2024-03-23T04:02:52;98668.28;;;9.55;76.57
69855;BME280;57146;48.140;16.304;2024-03-23T04:05:18;98672.78;;;9.54;77.19
69855;BME280;57146;48.140;16.304;2024-03-23T04:07:43;98666.28;;;9.52;77.10
69855;BME280;57146;48.140;16.304;2024-03-23T04:10:09;98661.34;;;9.50;76.95
69855;BME280;57146;48.140;16.304;2024-03-23T04:12:35;98656.84;;;9.51;77.13
69855;BME280;57146;48.140;16.304;2024-03-23T04:15:01;98655.94;;;9.47;77.68
69855;BME280;57146;48.140;16.304;2024-03-23T04:17:27;98661.47;;;9.45;77.86
69855;BME280;57146;48.140;16.304;2024-03-23T04:19:53;98654.34;;;9.46;78.08
69855;BME280;57146;48.140;16.304;2024-03-23T04:22:18;98655.44;;;9.45;78.51
69855;BME280;57146;48.140;16.304;2024-03-23T04:24:44;98653.91;;;9.44;78.15
69855;BME280;57146;48.140;16.304;2024-03-23T04:27:10;98650.19;;;9.45;78.28
69855;BME280;57146;48.140;16.304;2024-03-23T04:29:36;98650.97;;;9.45;78.49
69855;BME280;57146;48.140;16.304;2024-03-23T04:32:01;98650.50;;;9.43;78.57
69855;BME280;57146;48.140;16.304;2024-03-23T04:34:27;98645.56;;;9.42;78.61
69855;BME280;57146;48.140;16.304;2024-03-23T04:36:53;98646.16;;;9.39;79.20
69855;BME280;57146;48.140;16.304;2024-03-23T04:39:19;98648.78;;;9.39;78.82
69855;BME280;57146;48.140;16.304;2024-03-23T04:41:45;98640.91;;;9.39;78.92
69855;BME280;57146;48.140;16.304;2024-03-23T04:44:10;98644.31;;;9.39;78.80
69855;BME280;57146;48.140;16.304;2024-03-23T04:46:36;98645.38;;;9.38;78.95
69855;BME280;57146;48.140;16.304;2024-03-23T04:49:02;98635.97;;;9.37;78.42
69855;BME280;57146;48.140;16.304;2024-03-23T04:51:35;98639.38;;;9.38;77.96
69855;BME280;57146;48.140;16.304;2024-03-23T04:54:02;98630.41;;;9.39;78.08
69855;BME280;57146;48.140;16.304;2024-03-23T04:56:31;98627.78;;;9.39;77.58
69855;BME280;57146;48.140;16.304;2024-03-23T04:58:57;98628.25;;;9.41;77.40
69855;BME280;57146;48.140;16.304;2024-03-23T05:01:22;98626.41;;;9.41;77.87
69855;BME280;57146;48.140;16.304;2024-03-23T05:03:50;98621.13;;;9.41;78.01
69855;BME280;57146;48.140;16.304;2024-03-23T05:06:16;98617.41;;;9.42;78.13
69855;BME280;57146;48.140;16.304;2024-03-23T05:08:41;98613.25;;;9.41;78.59
69855;BME280;57146;48.140;16.304;2024-03-23T05:11:07;98598.28;;;9.42;78.70
69855;BME280;57146;48.140;16.304;2024-03-23T05:13:33;98600.13;;;9.41;78.78
69855;BME280;57146;48.140;16.304;2024-03-23T05:15:59;98590.38;;;9.42;79.30
69855;BME280;57146;48.140;16.304;2024-03-23T05:18:24;98599.84;;;9.43;79.00
69855;BME280;57146;48.140;16.304;2024-03-23T05:20:55;98599.84;;;9.43;78.98
69855;BME280;57146;48.140;16.304;2024-03-23T05:23:21;98599.19;;;9.46;78.68
69855;BME280;57146;48.140;16.304;2024-03-23T05:25:47;98602.31;;;9.48;78.86
69855;BME280;57146;48.140;16.304;2024-03-23T05:28:13;98605.41;;;9.50;78.89
69855;BME280;57146;48.140;16.304;2024-03-23T05:30:39;98597.19;;;9.51;78.91
69855;BME280;57146;48.140;16.304;2024-03-23T05:33:04;98604.47;;;9.54;79.00
69855;BME280;57146;48.140;16.304;2024-03-23T05:35:30;98597.69;;;9.53;79.50
69855;BME280;57146;48.140;16.304;2024-03-23T05:37:56;98594.72;;;9.55;79.70
69855;BME280;57146;48.140;16.304;2024-03-23T05:40:22;98597.84;;;9.57;80.02
69855;BME280;57146;48.140;16.304;2024-03-23T05:42:47;98593.78;;;9.59;80.44
69855;BME280;57146;48.140;16.304;2024-03-23T05:45:13;98594.56;;;9.60;80.25
69855;BME280;57146;48.140;16.304;2024-03-23T05:47:39;98587.63;;;9.64;80.30
69855;BME280;57146;48.140;16.304;2024-03-23T05:50:05;98586.53;;;9.65;80.19
69855;BME280;57146;48.140;16.304;2024-03-23T05:52:31;98593.81;;;9.68;79.59
69855;BME280;57146;48.140;16.304;2024-03-23T05:54:56;98594.72;;;9.72;79.29
69855;BME280;57146;48.140;16.304;2024-03-23T05:57:22;98584.66;;;9.74;79.38
69855;BME280;57146;48.140;16.304;2024-03-23T05:59:48;98584.81;;;9.78;80.05
69855;BME280;57146;48.140;16.304;2024-03-23T06:02:14;98582.34;;;9.81;79.87
69855;BME280;57146;48.140;16.304;2024-03-23T06:04:39;98579.88;;;9.85;79.66
69855;BME280;57146;48.140;16.304;2024-03-23T06:07:05;98585.28;;;9.89;78.90
69855;BME280;57146;48.140;16.304;2024-03-23T06:09:31;98582.78;;;9.92;78.01
69855;BME280;57146;48.140;16.304;2024-03-23T06:11:57;98580.31;;;9.96;77.31
69855;BME280;57146;48.140;16.304;2024-03-23T06:14:23;98577.84;;;9.99;77.15
69855;BME280;57146;48.140;16.304;2024-03-23T06:16:48;98575.34;;;10.03;77.08
69855;BME280;57146;48.140;16.304;2024-03-23T06:19:14;98573.66;;;10.07;77.11
69855;BME280;57146;48.140;16.304;2024-03-23T06:21:44;98563.31;;;10.11;75.99
69855;BME280;57146;48.140;16.304;2024-03-23T06:24:11;98568.72;;;10.14;76.33
69855;BME280;57146;48.140;16.304;2024-03-23T06:26:37;98566.53;;;10.16;76.60
69855;BME280;57146;48.140;16.304;2024-03-23T06:29:03;98563.25;;;10.19;76.90
69855;BME280;57146;48.140;16.304;2024-03-23T06:31:29;98563.75;;;10.21;77.26
69855;BME280;57146;48.140;16.304;2024-03-23T06:33:55;98561.09;;;10.21;77.01
69855;BME280;57146;48.140;16.304;2024-03-23T06:36:21;98558.16;;;10.23;77.06
69855;BME280;57146;48.140;16.304;2024-03-23T06:38:47;98558.16;;;10.23;77.33
69855;BME280;57146;48.140;16.304;2024-03-23T06:41:12;98557.06;;;10.24;75.93
69855;BME280;57146;48.140;16.304;2024-03-23T06:43:38;98543.63;;;10.25;75.90
69855;BME280;57146;48.140;16.304;2024-03-23T06:46:04;98554.59;;;10.27;76.75
69855;BME280;57146;48.140;16.304;2024-03-23T06:48:30;98555.38;;;10.28;77.70
69855;BME280;57146;48.140;16.304;2024-03-23T06:50:57;98546.84;;;10.31;77.69
69855;BME280;57146;48.140;16.304;2024-03-23T06:53:23;98548.72;;;10.30;78.25
69855;BME280;57146;48.140;16.304;2024-03-23T06:55:53;98543.91;;;10.33;77.62
69855;BME280;57146;48.140;16.304;2024-03-23T06:58:20;98549.19;;;10.33;77.51
69855;BME280;57146;48.140;16.304;2024-03-23T07:00:46;98551.50;;;10.34;77.25
69855;BME280;57146;48.140;16.304;2024-03-23T07:03:12;98546.69;;;10.36;76.52
69855;BME280;57146;48.140;16.304;2024-03-23T07:05:38;98545.59;;;10.37;75.84
69855;BME280;57146;48.140;16.304;2024-03-23T07:08:04;98547.59;;;10.40;76.26
69855;BME280;57146;48.140;16.304;2024-03-23T07:10:30;98547.28;;;10.42;75.97
69855;BME280;57146;48.140;16.304;2024-03-23T07:12:55;98553.78;;;10.44;75.88
69855;BME280;57146;48.140;16.304;2024-03-23T07:15:21;98553.47;;;10.46;76.13
69855;BME280;57146;48.140;16.304;2024-03-23T07:17:47;98552.06;;;10.48;76.04
69855;BME280;57146;48.140;16.304;2024-03-23T07:20:13;98550.66;;;10.51;76.47
69855;BME280;57146;48.140;16.304;2024-03-23T07:22:40;98552.66;;;10.54;76.14
69855;BME280;57146;48.140;16.304;2024-03-23T07:25:06;98551.25;;;10.57;74.47
69855;BME280;57146;48.140;16.304;2024-03-23T07:27:32;98558.50;;;10.60;74.34
69855;BME280;57146;48.140;16.304;2024-03-23T07:29:58;98537.59;;;10.63;74.30
69855;BME280;57146;48.140;16.304;2024-03-23T07:32:24;98546.41;;;10.67;74.48
69855;BME280;57146;48.140;16.304;2024-03-23T07:34:49;98542.06;;;10.71;74.91
69855;BME280;57146;48.140;16.304;2024-03-23T07:37:15;98538.47;;;10.76;75.10
69855;BME280;57146;48.140;16.304;2024-03-23T07:39:41;98543.22;;;10.83;73.52
69855;BME280;57146;48.140;16.304;2024-03-23T07:42:07;98544.59;;;10.89;72.68
69855;BME280;57146;48.140;16.304;2024-03-23T07:44:32;98543.31;;;10.95;72.58
69855;BME280;57146;48.140;16.304;2024-03-23T07:47:00;98534.91;;;11.01;72.26
69855;BME280;57146;48.140;16.304;2024-03-23T07:49:27;98530.66;;;11.09;72.46
69855;BME280;57146;48.140;16.304;2024-03-23T07:51:53;98528.75;;;11.18;73.59
69855;BME280;57146;48.140;16.304;2024-03-23T07:54:18;98528.41;;;11.41;73.69
69855;BME280;57146;48.140;16.304;2024-03-23T07:56:44;98522.94;;;11.67;74.95
69855;BME280;57146;48.140;16.304;2024-03-23T07:59:10;98528.97;;;11.88;73.44
69855;BME280;57146;48.140;16.304;2024-03-23T08:01:36;98518.78;;;12.11;72.79
69855;BME280;57146;48.140;16.304;2024-03-23T08:04:02;98513.97;;;12.38;72.86
69855;BME280;57146;48.140;16.304;2024-03-23T08:06:28;98508.94;;;12.57;71.38
69855;BME280;57146;48.140;16.304;2024-03-23T08:08:57;98503.63;;;12.82;71.35
69855;BME280;57146;48.140;16.304;2024-03-23T08:11:23;98493.03;;;12.94;69.99
69855;BME280;57146;48.140;16.304;2024-03-23T08:13:49;98483.50;;;13.17;68.02
69855;BME280;57146;48.140;16.304;2024-03-23T08:16:15;98482.81;;;13.33;66.51
69855;BME280;57146;48.140;16.304;2024-03-23T08:18:40;98469.31;;;13.50;66.46
69855;BME280;57146;48.140;16.304;2024-03-23T08:21:06;98471.22;;;13.65;65.89
69855;BME280;57146;48.140;16.304;2024-03-23T08:23:33;98463.97;;;13.78;65.55
69855;BME280;57146;48.140;16.304;2024-03-23T08:26:01;98461.94;;;13.87;64.28
69855;BME280;57146;48.140;16.304;2024-03-23T08:28:27;98458.19;;;13.88;63.36
69855;BME280;57146;48.140;16.304;2024-03-23T08:30:54;98454.44;;;14.05;63.07
69855;BME280;57146;48.140;16.304;2024-03-23T08:33:21;98444.03;;;14.12;61.34
69855;BME280;57146;48.140;16.304;2024-03-23T08:36:13;98439.75;;;14.24;60.48
69855;BME280;57146;48.140;16.304;2024-03-23T08:38:39;98438.50;;;14.37;60.37
69855;BME280;57146;48.140;16.304;2024-03-23T08:41:07;98435.44;;;14.51;58.59
69855;BME280;57146;48.140;16.304;2024-03-23T08:43:36;98439.44;;;14.60;59.89
69855;BME280;57146;48.140;16.304;2024-03-23T08:46:05;98422.66;;;14.72;59.71
69855;BME280;57146;48.140;16.304;2024-03-23T08:48:31;98423.38;;;14.89;60.39
69855;BME280;57146;48.140;16.304;2024-03-23T08:51:03;98422.13;;;15.02;61.02
69855;BME280;57146;48.140;16.304;2024-03-23T08:53:30;98406.00;;;15.11;60.13
69855;BME280;57146;48.140;16.304;2024-03-23T08:55:57;98403.53;;;15.21;59.29
69855;BME280;57146;48.140;16.304;2024-03-23T08:58:24;98390.09;;;15.30;57.12
69855;BME280;57146;48.140;16.304;2024-03-23T09:00:51;98391.50;;;15.47;57.75
69855;BME280;57146;48.140;16.304;2024-03-23T09:03:17;98386.69;;;15.52;56.23
69855;BME280;57146;48.140;16.304;2024-03-23T09:05:43;98368.78;;;15.69;55.11
69855;BME280;57146;48.140;16.304;2024-03-23T09:08:09;98358.34;;;15.79;53.30
69855;BME280;57146;48.140;16.304;2024-03-23T09:10:38;98356.66;;;15.94;53.59
69855;BME280;57146;48.140;16.304;2024-03-23T09:13:05;98339.81;;;16.10;54.75
69855;BME280;57146;48.140;16.304;2024-03-23T09:15:34;98335.06;;;16.22;53.16
69855;BME280;57146;48.140;16.304;2024-03-23T09:18:01;98334.84;;;16.35;51.83
69855;BME280;57146;48.140;16.304;2024-03-23T09:20:27;98336.13;;;16.48;51.37
69855;BME280;57146;48.140;16.304;2024-03-23T09:22:53;98317.72;;;16.62;50.86
69855;BME280;57146;48.140;16.304;2024-03-23T09:25:19;98334.19;;;16.75;50.90
69855;BME280;57146;48.140;16.304;2024-03-23T09:27:49;98321.81;;;16.86;49.97
69855;BME280;57146;48.140;16.304;2024-03-23T09:30:15;98310.94;;;17.02;49.76
69855;BME280;57146;48.140;16.304;2024-03-23T09:32:43;98312.91;;;17.09;51.29
69855;BME280;57146;48.140;16.304;2024-03-23T09:35:10;98308.09;;;17.25;51.48
69855;BME280;57146;48.140;16.304;2024-03-23T09:37:36;98297.16;;;17.34;50.58
69855;BME280;57146;48.140;16.304;2024-03-23T09:40:02;98294.53;;;17.37;48.11
69855;BME280;57146;48.140;16.304;2024-03-23T09:42:28;98288.13;;;17.45;48.83
69855;BME280;57146;48.140;16.304;2024-03-23T09:44:57;98287.03;;;17.54;47.27
69855;BME280;57146;48.140;16.304;2024-03-23T09:47:24;98278.00;;;17.62;47.19
69855;BME280;57146;48.140;16.304;2024-03-23T09:49:50;98268.91;;;17.70;45.19
69855;BME280;57146;48.140;16.304;2024-03-23T09:52:16;98267.94;;;17.92;43.84
69855;BME280;57146;48.140;16.304;2024-03-23T09:54:42;98259.63;;;18.05;42.82
69855;BME280;57146;48.140;16.304;2024-03-23T09:57:08;98252.44;;;18.16;43.70
69855;BME280;57146;48.140;16.304;2024-03-23T09:59:34;98241.41;;;18.14;45.31
69855;BME280;57146;48.140;16.304;2024-03-23T10:02:03;98240.63;;;18.10;46.09
69855;BME280;57146;48.140;16.304;2024-03-23T10:04:37;98231.13;;;18.09;46.00
69855;BME280;57146;48.140;16.304;2024-03-23T10:07:14;98224.28;;;18.11;45.80
69855;BME280;57146;48.140;16.304;2024-03-23T10:09:41;98214.75;;;18.14;45.66
69855;BME280;57146;48.140;16.304;2024-03-23T10:12:11;98218.59;;;18.16;45.19
69855;BME280;57146;48.140;16.304;2024-03-23T10:14:37;98213.66;;;18.18;45.83
69855;BME280;57146;48.140;16.304;2024-03-23T10:17:18;98204.56;;;18.37;44.52
69855;BME280;57146;48.140;16.304;2024-03-23T10:19:49;98196.59;;;18.48;44.84
69855;BME280;57146;48.140;16.304;2024-03-23T10:22:20;98199.69;;;18.68;43.08
69855;BME280;57146;48.140;16.304;2024-03-23T10:24:47;98191.34;;;18.77;42.81
69855;BME280;57146;48.140;16.304;2024-03-23T10:27:18;98195.91;;;18.76;42.97
69855;BME280;57146;48.140;16.304;2024-03-23T10:29:49;98188.28;;;18.82;44.27
69855;BME280;57146;48.140;16.304;2024-03-23T10:32:18;98187.53;;;18.99;42.36
69855;BME280;57146;48.140;16.304;2024-03-23T10:34:45;98178.41;;;19.11;42.72
69855;BME280;57146;48.140;16.304;2024-03-23T10:37:11;98174.16;;;19.31;43.01
69855;BME280;57146;48.140;16.304;2024-03-23T10:39:38;98164.25;;;19.39;42.07
69855;BME280;57146;48.140;16.304;2024-03-23T10:42:08;98164.25;;;19.46;41.36
69855;BME280;57146;48.140;16.304;2024-03-23T10:44:35;98161.59;;;19.43;40.18
69855;BME280;57146;48.140;16.304;2024-03-23T10:47:02;98150.53;;;19.41;38.85
69855;BME280;57146;48.140;16.304;2024-03-23T10:49:32;98151.28;;;19.37;40.39
69855;BME280;57146;48.140;16.304;2024-03-23T10:51:59;98152.81;;;19.38;38.01
69855;BME280;57146;48.140;16.304;2024-03-23T10:54:26;98147.44;;;19.53;38.49
69855;BME280;57146;48.140;16.304;2024-03-23T10:57:14;98129.44;;;19.82;38.12
69855;BME280;57146;48.140;16.304;2024-03-23T10:59:41;98133.97;;;19.92;36.27
69855;BME280;57146;48.140;16.304;2024-03-23T11:02:07;98125.09;;;20.06;39.76
69855;BME280;57146;48.140;16.304;2024-03-23T11:04:36;98118.94;;;20.16;40.11
69855;BME280;57146;48.140;16.304;2024-03-23T11:07:32;98126.91;;;20.23;36.17
69855;BME280;57146;48.140;16.304;2024-03-23T11:09:59;98117.03;;;20.17;35.78
69855;BME280;57146;48.140;16.304;2024-03-23T11:12:27;98118.97;;;20.13;36.38
69855;BME280;57146;48.140;16.304;2024-03-23T11:14:56;98115.59;;;20.01;37.07
69855;BME280;57146;48.140;16.304;2024-03-23T11:17:26;98111.75;;;20.06;38.14
69855;BME280;57146;48.140;16.304;2024-03-23T11:19:58;98107.59;;;20.01;38.47
69855;BME280;57146;48.140;16.304;2024-03-23T11:22:44;98106.50;;;19.92;36.78
69855;BME280;57146;48.140;16.304;2024-03-23T11:27:44;98110.78;;;19.78;39.12
69855;BME280;57146;48.140;16.304;2024-03-23T11:30:15;98100.13;;;19.71;38.94
69855;BME280;57146;48.140;16.304;2024-03-23T11:32:45;98099.75;;;19.66;38.08
69855;BME280;57146;48.140;16.304;2024-03-23T11:35:28;98098.63;;;19.63;38.04
69855;BME280;57146;48.140;16.304;2024-03-23T11:38:10;98091.00;;;19.58;38.03
69855;BME280;57146;48.140;16.304;2024-03-23T11:40:42;98086.06;;;19.49;38.41
69855;BME280;57146;48.140;16.304;2024-03-23T11:43:12;98082.66;;;19.45;39.02
69855;BME280;57146;48.140;16.304;2024-03-23T11:50:43;98083.84;;;19.26;39.83
69855;BME280;57146;48.140;16.304;2024-03-23T11:53:20;98096.47;;;19.19;40.19
69855;BME280;57146;48.140;16.304;2024-03-23T11:58:17;98087.34;;;19.05;39.56
69855;BME280;57146;48.140;16.304;2024-03-23T12:00:57;98085.44;;;19.02;40.58
69855;BME280;57146;48.140;16.304;2024-03-23T12:03:24;98085.84;;;18.97;40.40
69855;BME280;57146;48.140;16.304;2024-03-23T12:05:51;98087.00;;;18.93;41.78
69855;BME280;57146;48.140;16.304;2024-03-23T12:08:23;98085.09;;;18.86;41.40
69855;BME280;57146;48.140;16.304;2024-03-23T12:11:31;98083.19;;;18.79;41.81
69855;BME280;57146;48.140;16.304;2024-03-23T12:13:40;98078.22;;;18.74;40.59
69855;BME280;57146;48.140;16.304;2024-03-23T12:16:14;98079.38;;;18.77;42.22
69855;BME280;57146;48.140;16.304;2024-03-23T12:18:41;98074.81;;;18.74;42.10
69855;BME280;57146;48.140;16.304;2024-03-23T12:21:08;98074.78;;;18.70;41.50
69855;BME280;57146;48.140;16.304;2024-03-23T12:23:35;98074.03;;;18.70;41.91
69855;BME280;57146;48.140;16.304;2024-03-23T12:26:01;98067.94;;;18.65;41.35
69855;BME280;57146;48.140;16.304;2024-03-23T12:28:28;98074.44;;;18.64;40.97
69855;BME280;57146;48.140;16.304;2024-03-23T12:30:55;98065.66;;;18.60;42.09
69855;BME280;57146;48.140;16.304;2024-03-23T12:33:21;98062.63;;;18.58;41.04
69855;BME280;57146;48.140;16.304;2024-03-23T12:35:48;98060.31;;;18.53;42.22
69855;BME280;57146;48.140;16.304;2024-03-23T12:38:14;98063.00;;;18.50;41.55
69855;BME280;57146;48.140;16.304;2024-03-23T12:40:40;98072.53;;;18.47;43.84
69855;BME280;57146;48.140;16.304;2024-03-23T12:43:06;98078.97;;;18.39;47.19
69855;BME280;57146;48.140;16.304;2024-03-23T12:45:31;98079.75;;;18.29;47.50
69855;BME280;57146;48.140;16.304;2024-03-23T12:47:57;98092.28;;;18.21;44.54
69855;BME280;57146;48.140;16.304;2024-03-23T12:50:23;98110.91;;;18.10;46.23
69855;BME280;57146;48.140;16.304;2024-03-23T12:52:49;98154.25;;;17.97;47.99
69855;BME280;57146;48.140;16.304;2024-03-23T12:55:15;98170.00;;;17.57;53.97
69855;BME280;57146;48.140;16.304;2024-03-23T12:57:41;98179.22;;;17.12;54.15
69855;BME280;57146;48.140;16.304;2024-03-23T13:00:08;98187.44;;;16.92;56.89
69855;BME280;57146;48.140;16.304;2024-03-23T13:02:34;98197.22;;;16.81;54.69
69855;BME280;57146;48.140;16.304;2024-03-23T13:04:59;98217.13;;;16.64;56.02
69855;BME280;57146;48.140;16.304;2024-03-23T13:07:25;98225.25;;;16.41;55.38
69855;BME280;57146;48.140;16.304;2024-03-23T13:09:52;98250.44;;;16.21;55.45
69855;BME280;57146;48.140;16.304;2024-03-23T13:12:19;98258.16;;;15.99;55.66
69855;BME280;57146;48.140;16.304;2024-03-23T13:14:45;98259.09;;;15.84;55.07
69855;BME280;57146;48.140;16.304;2024-03-23T13:17:11;98270.53;;;15.65;55.40
69855;BME280;57146;48.140;16.304;2024-03-23T13:19:37;98285.66;;;15.38;55.09
69855;BME280;57146;48.140;16.304;2024-03-23T13:22:03;98305.75;;;15.16;55.99
69855;BME280;57146;48.140;16.304;2024-03-23T13:24:30;98311.66;;;14.87;57.26
69855;BME280;57146;48.140;16.304;2024-03-23T13:26:57;98316.22;;;14.67;57.84
69855;BME280;57146;48.140;16.304;2024-03-23T13:29:24;98329.94;;;14.53;57.82
69855;BME280;57146;48.140;16.304;2024-03-23T13:31:53;98340.09;;;14.16;58.98
69855;BME280;57146;48.140;16.304;2024-03-23T13:34:19;98362.75;;;13.97;58.87
69855;BME280;57146;48.140;16.304;2024-03-23T13:36:46;98358.94;;;13.95;60.67
69855;BME280;57146;48.140;16.304;2024-03-23T13:39:13;98360.22;;;13.85;61.00
69855;BME280;57146;48.140;16.304;2024-03-23T13:41:45;98377.97;;;13.69;60.62
69855;BME280;57146;48.140;16.304;2024-03-23T13:44:12;98386.75;;;13.57;63.47
69855;BME280;57146;48.140;16.304;2024-03-23T13:46:40;98391.78;;;13.18;63.27
69855;BME280;57146;48.140;16.304;2024-03-23T13:49:06;98393.88;;;13.12;64.99
69855;BME280;57146;48.140;16.304;2024-03-23T13:51:33;98387.25;;;12.90;69.52
69855;BME280;57146;48.140;16.304;2024-03-23T13:53:59;98381.66;;;12.64;68.70